Terminal Aerodrome Forecast
Issued by NWS Duluth, MN

Home | Current Version | Previous Version | Text Only | Print | Product List | Glossary On
Versions: 1 2 3 4 5 6 7 8 9 10 11 12 13 14 15 16 17 18 19 20 21 22 23 24 25 26 27 28 29 30 31 32 33 34
878
FTUS43 KDLH 261341 AAC
TAFDLH
TAF AMD
KDLH 261341Z 2614/2712 10006KT 1/4SM FG VCSH VV002
     FM261700 14006KT 3SM BR BKN010
     FM262100 20010KT P6SM SCT015
     FM270200 12004KT P6SM VCSH SCT080
     FM270800 00000KT 1/2SM FG VCSH BKN008=

USA.gov is the U.S. government's official web portal to all federal, state and local government web resources and services.